DW4480 Assen NL current weather conditions

sailwx.info

Wind from 018 at 12 knots gusting 21

Air temperature 12.2° C
Dewpoint 9.2° C

Last reported at 2018-Jun-22 07:08 UTC.
Time now 2018-Jun-22 07:38 UTC

Location: N 53°06' E 006°24'.
View on Google Maps.

See reports from other nearby stations

  
Tides and Currents Weather Stations Pressure Air Temp Water Temp Dewpoint Dewpoint Depression Visibility Wind Speed Wind Dir Waves Ship Positions
date/time (UTC)wind fromknots sea level pressurealtimeterstation pressurevisibilityair tempwater tempwave heightnotes
2018-Jun-22 07:08 018 12 gusting 21 12.2
2018-Jun-22 06:52 355 9 gusting 16 12.8
2018-Jun-22 06:37 355 8 gusting 14 12.2
2018-Jun-22 06:22 005 11 gusting 20 12.2
2018-Jun-22 06:07 005 10 gusting 18 11.7
2018-Jun-22 05:52 355 9 gusting 16 11.7
2018-Jun-22 05:37 351 10 gusting 19 11.7
2018-Jun-22 05:22 360 10 gusting 17 11.1
2018-Jun-22 05:07 010 6 gusting 14 11.1
2018-Jun-22 04:52 017 4 gusting 12 10.6
2018-Jun-22 04:37 345 4 gusting 10 10.0
2018-Jun-22 04:22 023 4 gusting 13 10.0
2018-Jun-22 04:07 011 8 gusting 17 10.0
2018-Jun-22 03:52 340 5 gusting 11 10.0
2018-Jun-22 03:37 009 6 gusting 13 10.0
2018-Jun-22 03:22 039 6 gusting 19 10.0
2018-Jun-22 03:07 336 6 gusting 13 10.0
2018-Jun-22 02:52 009 6 gusting 11 10.0
2018-Jun-22 02:37 328 6 gusting 16 10.0
2018-Jun-22 02:22 346 5 gusting 13 10.6
2018-Jun-22 02:07 329 6 gusting 13 10.6
2018-Jun-22 01:52 291 5 gusting 9 10.6
2018-Jun-22 01:37 348 4 gusting 13 11.1
2018-Jun-22 01:22 284 3 gusting 11 11.1
2018-Jun-22 01:07 342 6 gusting 13 11.1
2018-Jun-22 00:51 315 4 gusting 9 10.6
2018-Jun-22 00:36 313 3 gusting 12 10.6
2018-Jun-22 00:21 288 5 gusting 10 10.6
2018-Jun-22 00:06 294 4 gusting 9 10.6
2018-Jun-21 23:51 340 3 gusting 8 10.6
2018-Jun-21 23:36 288 3 gusting 11 10.0
2018-Jun-21 23:21 327 8 gusting 13 10.6
2018-Jun-21 23:06 314 5 gusting 13 10.6
2018-Jun-21 22:51 297 5 gusting 11 10.0
2018-Jun-21 22:36 294 6 gusting 12 10.0
2018-Jun-21 22:21 306 6 gusting 13 10.0
2018-Jun-21 22:06 290 4 gusting 9 10.0
2018-Jun-21 21:51 323 6 gusting 12 10.6
2018-Jun-21 21:36 288 6 gusting 11 10.6
2018-Jun-21 21:21 288 6 gusting 13 10.6
2018-Jun-21 21:06 285 6 gusting 13 10.0
2018-Jun-21 20:51 298 5 gusting 11 10.0
2018-Jun-21 20:36 306 6 gusting 11 10.0
2018-Jun-21 20:21 307 5 gusting 10 10.0
2018-Jun-21 20:06 267 6 gusting 13 10.0
2018-Jun-21 19:51 245 7 gusting 13 10.0
2018-Jun-21 19:36 278 6 gusting 11 10.6
2018-Jun-21 19:21 290 5 gusting 13 10.6
2018-Jun-21 19:06 273 6 gusting 16 10.6
2018-Jun-21 18:51 333 6 gusting 13 11.7
2018-Jun-21 18:36 009 7 gusting 17 11.7
2018-Jun-21 18:21 360 6 gusting 14 12.8
2018-Jun-21 18:06 360 5 gusting 14 12.8
2018-Jun-21 17:51 318 8 gusting 19 13.3
2018-Jun-21 17:36 278 4 gusting 15 13.3
2018-Jun-21 17:21 305 7 gusting 12 13.3
2018-Jun-21 17:06 322 4 gusting 11 12.8
2018-Jun-21 16:51 277 7 gusting 17 12.8
2018-Jun-21 16:36 275 6 gusting 24 12.2
2018-Jun-21 16:21 344 7 gusting 17 13.9
2018-Jun-21 16:06 346 6 gusting 12 13.3
2018-Jun-21 15:51 346 10 gusting 18 13.3
2018-Jun-21 15:35 344 10 gusting 20 13.9
2018-Jun-21 15:20 333 7 gusting 19 14.4
2018-Jun-21 15:05 311 7 gusting 18 13.9
2018-Jun-21 14:50 355 15 gusting 21 13.3
2018-Jun-21 14:35 355 9 gusting 16 15.0
2018-Jun-21 14:20 005 9 gusting 20 15.0
2018-Jun-21 14:05 011 10 gusting 20 15.0
2018-Jun-21 13:50 355 13 gusting 19 15.6
2018-Jun-21 13:35 005 11 gusting 14 15.0
2018-Jun-21 13:20 012 12 gusting 20 14.4
2018-Jun-21 13:05 316 8 gusting 18 13.3
2018-Jun-21 12:50 350 5 gusting 12 11.7
2018-Jun-21 12:35 360 14 gusting 25 13.9
2018-Jun-21 12:20 005 10 gusting 24 14.4
2018-Jun-21 12:05 351 7 gusting 20 15.0
2018-Jun-21 11:50 261 7 gusting 14 13.9
2018-Jun-21 11:35 293 9 gusting 18 14.4
2018-Jun-21 11:20 355 4 gusting 21 11.7
2018-Jun-21 11:05 030 6 gusting 16 14.4
2018-Jun-21 10:50 344 6 gusting 23 13.3
2018-Jun-21 10:35 355 10 gusting 22 13.3
2018-Jun-21 10:20 229 7 gusting 19 13.3
2018-Jun-21 10:05 319 7 gusting 16 14.4
2018-Jun-21 09:50 346 7 gusting 15 13.3
2018-Jun-21 09:35 315 6 gusting 16 12.2
2018-Jun-21 09:20 286 9 gusting 25 13.9
2018-Jun-21 09:05 298 8 gusting 23 13.9
2018-Jun-21 08:50 302 11 gusting 19 14.4
2018-Jun-21 08:35 343 10 gusting 18 13.9
2018-Jun-21 08:20 288 6 gusting 20 14.4
2018-Jun-21 08:05 305 7 gusting 13 13.9
2018-Jun-21 07:50 280 4 gusting 13 12.8
2018-Jun-21 07:34 310 6 gusting 17 13.3
2018-Jun-21 07:19 290 6 gusting 13 13.3
2018-Jun-21 07:04 338 7 gusting 14 13.9
2018-Jun-21 06:49 267 6 gusting 9 13.3
2018-Jun-21 06:34 268 3 gusting 8 13.3
2018-Jun-21 06:19 293 3 gusting 10 13.3
2018-Jun-21 06:04 294 2 gusting 6 13.3
2018-Jun-21 05:49 268 2 gusting 7 13.3
2018-Jun-21 05:35 290 2 gusting 6 13.3
2018-Jun-21 05:20 005 0 gusting 6 13.3
2018-Jun-21 05:05 340 3 gusting 8 13.3
2018-Jun-21 04:50 318 2 gusting 8 13.3
2018-Jun-21 04:35 329 3 gusting 8 13.3
2018-Jun-21 04:20 331 2 gusting 9 13.3
2018-Jun-21 04:05 019 6 gusting 11 13.9
2018-Jun-21 03:50 324 5 gusting 9 13.9
2018-Jun-21 03:35 017 2 gusting 6 13.9
2018-Jun-21 03:19 015 3 gusting 6 13.9
2018-Jun-21 03:05 351 6 gusting 9 13.9
2018-Jun-21 02:49 343 2 gusting 4 14.4
2018-Jun-21 02:34 307 1 gusting 3 14.4
2018-Jun-21 02:19 355 1 gusting 5 14.4
2018-Jun-21 02:04 342 3 gusting 7 14.4
2018-Jun-21 01:49 355 5 gusting 11 15.0
2018-Jun-21 01:34 350 3 gusting 9 15.0
2018-Jun-21 01:19 351 6 gusting 12 15.6
2018-Jun-21 01:04 310 4 gusting 9 15.6
2018-Jun-21 00:49 302 1 gusting 4 16.1
2018-Jun-21 00:34 287 2 gusting 6 16.1
2018-Jun-21 00:19 328 2 gusting 5 16.1
2018-Jun-21 00:04 273 2 gusting 6 16.1
2018-Jun-20 23:49 292 1 gusting 8 16.1
2018-Jun-20 23:34 302 3 gusting 8 16.1
2018-Jun-20 23:19 278 2 gusting 5 16.7
2018-Jun-20 23:04 294 2 gusting 7 16.7
2018-Jun-20 22:49 309 1 gusting 6 17.2
2018-Jun-20 22:34 229 0 gusting 3 17.2
2018-Jun-20 22:19 218 0 gusting 2 16.7
2018-Jun-20 22:04 207 16.7
2018-Jun-20 21:49 207 0 gusting 3 16.7
2018-Jun-20 21:34 246 0 gusting 2 16.7
2018-Jun-20 21:19 260 16.7
2018-Jun-20 21:04 260 0 gusting 2 16.7
2018-Jun-20 20:49 260 17.2
2018-Jun-20 20:34 263 1 gusting 6 17.2
2018-Jun-20 20:19 282 1 gusting 3 17.8
2018-Jun-20 20:04 299 2 gusting 7 18.3
2018-Jun-20 19:49 252 1 gusting 6 18.3
2018-Jun-20 19:34 229 2 gusting 6 18.3
2018-Jun-20 19:19 275 5 gusting 10 18.9
2018-Jun-20 19:04 279 3 gusting 6 19.4
2018-Jun-20 18:49 271 5 gusting 9 20.0
2018-Jun-20 18:34 269 4 gusting 8 20.0
2018-Jun-20 18:19 267 6 gusting 8 20.0
2018-Jun-20 18:04 274 6 gusting 13 20.6
2018-Jun-20 17:49 219 6 gusting 12 20.6
2018-Jun-20 17:33 273 6 gusting 11 20.6
2018-Jun-20 17:18 277 6 gusting 13 21.1
2018-Jun-20 17:03 286 7 gusting 13 21.1
2018-Jun-20 16:48 270 6 gusting 13 21.1
2018-Jun-20 16:33 271 5 gusting 13 21.1
2018-Jun-20 16:18 265 7 gusting 13 21.7
2018-Jun-20 16:03 264 10 gusting 18 21.7
2018-Jun-20 15:48 271 3 gusting 11 22.2
2018-Jun-20 15:33 271 7 gusting 13 21.7
2018-Jun-20 15:18 266 7 gusting 17 22.2
2018-Jun-20 15:03 240 6 gusting 13 22.2
2018-Jun-20 14:48 298 6 gusting 13 22.2
2018-Jun-20 14:33 272 7 gusting 13 22.8
2018-Jun-20 14:18 251 8 gusting 13 22.2
2018-Jun-20 14:03 262 5 gusting 12 22.2
2018-Jun-20 13:48 182 5 gusting 13 22.2
2018-Jun-20 13:33 284 5 gusting 12 22.2
2018-Jun-20 13:18 184 5 gusting 10 22.2
2018-Jun-20 13:03 196 5 gusting 14 21.7
2018-Jun-20 12:48 275 4 gusting 11 22.2
2018-Jun-20 12:33 273 6 gusting 14 22.2
2018-Jun-20 12:18 209 7 gusting 14 22.2
2018-Jun-20 12:03 290 4 gusting 16 22.2
2018-Jun-20 11:48 186 7 gusting 14 22.2
2018-Jun-20 11:33 263 4 gusting 12 22.2
2018-Jun-20 11:18 184 5 gusting 12 22.2
2018-Jun-20 11:03 263 6 gusting 13 21.1
2018-Jun-20 10:48 189 5 gusting 9 21.1
2018-Jun-20 10:33 257 2 gusting 8 21.7
2018-Jun-20 10:18 208 6 gusting 10 22.2
2018-Jun-20 10:03 113 4 gusting 12 21.7
2018-Jun-20 09:48 230 6 gusting 12 21.7
2018-Jun-20 09:33 196 5 gusting 8 21.7
2018-Jun-20 09:18 263 3 gusting 12 20.6
2018-Jun-20 09:03 194 4 gusting 12 20.6
2018-Jun-20 08:48 142 2 gusting 11 21.1
2018-Jun-20 08:32 298 4 gusting 10 21.1
2018-Jun-20 08:17 257 4 gusting 10 20.6
2018-Jun-20 08:02 186 5 gusting 12 20.6
2018-Jun-20 07:47 248 4 gusting 8 20.6
2018-Jun-20 07:32 240 4 gusting 9 20.0
2018-Jun-20 07:17 221 4 gusting 8 19.4
2018-Jun-20 07:02 143 3 gusting 9 19.4